Time;durP1;ratioP1;P1;durP2;ratioP2;P2;SDS_P1;SDS_P2;PMS_P1;PMS_P2;Temp;Humidity;BMP_temperature;BMP_pressure;BME280_temperature;BME280_humidity;BME280_pressure;Samples;Min_cycle;Max_cycle;Signal;HPM_P1;HPM_P2
2021/12/15 00:00:58;;;;;;;18.35;12.15;;;8.40;99.90;;;;;;5021382;28;20038;-72
2021/12/15 00:03:26;;;;;;;;;;;8.50;99.90;;;;;;5021792;28;20026;-72
2021/12/15 00:05:52;;;;;;;19.23;10.90;;;8.40;99.90;;;;;;5022034;28;19921;-72
2021/12/15 00:08:18;;;;;;;;;;;8.40;99.90;;;;;;5022291;28;20081;-72
2021/12/15 00:10:45;;;;;;;16.08;9.60;;;8.40;99.90;;;;;;5021641;28;19967;-72
2021/12/15 00:13:13;;;;;;;15.85;9.82;;;8.50;99.90;;;;;;5021925;28;20025;-72
2021/12/15 00:15:39;;;;;;;17.63;11.55;;;8.40;99.90;;;;;;5020879;28;20037;-72
2021/12/15 00:18:05;;;;;;;;;;;8.50;99.90;;;;;;5022882;28;20029;-72
2021/12/15 00:20:31;;;;;;;15.48;9.95;;;8.50;99.90;;;;;;5021544;28;19916;-72
2021/12/15 00:22:56;;;;;;;;;;;8.50;99.90;;;;;;5020936;28;20489;-72
2021/12/15 00:25:26;;;;;;;13.80;8.95;;;8.50;99.90;;;;;;5020575;28;19921;-72
2021/12/15 00:27:52;;;;;;;12.98;9.32;;;8.50;99.90;;;;;;5021363;28;20490;-72
2021/12/15 00:30:18;;;;;;;;;;;8.50;99.90;;;;;;5020314;28;20029;-72
2021/12/15 00:32:44;;;;;;;10.40;7.45;;;8.50;99.90;;;;;;5020525;28;19920;-72
2021/12/15 00:35:09;;;;;;;;;;;8.50;99.90;;;;;;5021135;28;20064;-72
2021/12/15 00:37:35;;;;;;;13.63;8.63;;;8.50;99.90;;;;;;5020552;28;19913;-72
2021/12/15 00:40:00;;;;;;;;;;;8.50;99.90;;;;;;5021572;28;20044;-72
2021/12/15 00:42:26;;;;;;;12.77;7.95;;;8.50;99.90;;;;;;5020339;28;19916;-72
2021/12/15 00:44:52;;;;;;;;;;;8.50;99.90;;;;;;5020993;28;20034;-71
2021/12/15 00:47:17;;;;;;;12.80;8.77;;;8.50;99.90;;;;;;5020355;28;19917;-72
2021/12/15 00:49:43;;;;;;;;;;;8.50;99.90;;;;;;5021891;28;20036;-71
2021/12/15 00:52:09;;;;;;;11.95;7.50;;;8.50;99.90;;;;;;5020642;28;19909;-72
2021/12/15 00:54:36;;;;;;;11.38;8.25;;;8.50;99.90;;;;;;5019972;28;20116;-72
2021/12/15 00:57:01;;;;;;;13.18;8.20;;;8.60;99.90;;;;;;5020620;28;20041;-71
2021/12/15 00:59:28;;;;;;;;;;;8.60;99.90;;;;;;5021427;28;20030;-72
2021/12/15 01:01:54;;;;;;;11.10;8.15;;;8.50;99.90;;;;;;5019071;28;20376;-72
2021/12/15 01:04:22;;;;;;;10.02;7.45;;;8.60;99.90;;;;;;5020066;28;20022;-72
2021/12/15 01:06:53;;;;;;;11.90;8.13;;;8.50;99.90;;;;;;5020261;28;20029;-72
2021/12/15 01:09:27;;;;;;;10.02;7.13;;;8.50;99.90;;;;;;5020413;28;20488;-72
2021/12/15 01:19:53;;;;;;;13.95;9.13;;;8.60;99.90;;;;;;5018852;28;20546;-72
2021/12/15 01:22:25;;;;;;;11.43;8.65;;;8.50;99.90;;;;;;5021114;28;20121;-72
2021/12/15 01:24:52;;;;;;;11.32;7.85;;;8.50;99.90;;;;;;5020407;28;20057;-72
2021/12/15 01:27:18;;;;;;;13.93;7.85;;;8.50;99.90;;;;;;5018487;28;20473;-72
2021/12/15 01:29:44;;;;;;;;;;;8.60;99.90;;;;;;5009777;28;20044;-72
2021/12/15 01:32:09;;;;;;;11.52;8.32;;;8.60;99.90;;;;;;5020245;28;19909;-71
2021/12/15 01:34:35;;;;;;;;;;;8.60;99.90;;;;;;5019982;28;20029;-72
2021/12/15 01:37:00;;;;;;;11.00;7.63;;;8.50;99.90;;;;;;5019707;28;20342;-72
2021/12/15 01:39:26;;;;;;;9.35;6.72;;;8.50;99.90;;;;;;5018887;28;20021;-72
2021/12/15 01:41:55;;;;;;;13.85;7.55;;;8.50;99.90;;;;;;5019840;28;20132;-67
2021/12/15 01:47:10;;;;;;;10.25;8.20;;;8.50;99.90;;;;;;5019283;28;20045;-67
2021/12/15 01:49:41;;;;;;;12.55;7.97;;;8.60;99.90;;;;;;5001006;28;20029;-67
2021/12/15 01:52:13;;;;;;;9.45;7.47;;;8.60;99.90;;;;;;5009235;28;20018;-67
2021/12/15 01:54:43;;;;;;;11.73;8.02;;;8.60;99.90;;;;;;5019650;28;20037;-67
2021/12/15 01:57:10;;;;;;;11.95;7.43;;;8.50;99.90;;;;;;5020061;28;20084;-67
2021/12/15 01:59:37;;;;;;;9.13;6.63;;;8.60;99.90;;;;;;5019989;28;20014;-67
2021/12/15 02:02:03;;;;;;;10.00;8.23;;;8.50;99.90;;;;;;5003117;28;20388;-67
2021/12/15 02:04:29;;;;;;;10.50;8.00;;;8.60;99.90;;;;;;5018490;28;20025;-67
2021/12/15 02:06:55;;;;;;;;;;;8.60;99.90;;;;;;5018961;28;20029;-67
2021/12/15 02:10:08;;;;;;;11.07;7.90;;;8.50;99.90;;;;;;5018235;28;19913;-67
2021/12/15 02:12:10;;;;;;;11.23;7.57;;;8.50;99.90;;;;;;5009430;28;20092;-67
2021/12/15 02:14:36;;;;;;;9.82;7.13;;;8.60;99.90;;;;;;5019711;28;20409;-67
2021/12/15 02:17:02;;;;;;;;;;;8.50;99.90;;;;;;5020009;28;20020;-67
2021/12/15 02:19:28;;;;;;;10.55;6.43;;;8.50;99.90;;;;;;5019763;28;20368;-67
2021/12/15 02:21:54;;;;;;;;;;;8.50;99.90;;;;;;5017578;28;20021;-67
2021/12/15 02:24:20;;;;;;;10.68;7.15;;;8.50;99.90;;;;;;5001758;28;20368;-67
2021/12/15 02:26:50;;;;;;;14.30;8.00;;;8.50;99.90;;;;;;5019132;28;20038;-67
2021/12/15 02:29:19;;;;;;;9.60;7.22;;;8.50;99.90;;;;;;5018925;28;20109;-68
2021/12/15 02:39:36;;;;;;;9.82;6.63;;;8.50;99.90;;;;;;5019188;28;20036;-71
2021/12/15 02:42:02;;;;;;;;;;;8.50;99.90;;;;;;5019234;28;20100;-71
2021/12/15 02:44:28;;;;;;;32.97;20.02;;;8.60;99.90;;;;;;5018894;28;19904;-71
2021/12/15 02:46:54;;;;;;;25.08;15.35;;;8.50;99.90;;;;;;5019120;28;20408;-71
2021/12/15 02:49:23;;;;;;;13.93;9.18;;;8.50;99.90;;;;;;5018318;28;20104;-71
2021/12/15 02:51:51;;;;;;;10.52;7.53;;;8.60;99.90;;;;;;5019423;28;20345;-71
2021/12/15 02:54:18;;;;;;;13.80;9.63;;;8.60;99.90;;;;;;5008277;28;20022;-71
2021/12/15 02:56:46;;;;;;;11.50;7.80;;;8.60;99.90;;;;;;5019121;28;20049;-71
2021/12/15 02:59:14;;;;;;;10.82;7.50;;;8.60;99.90;;;;;;5019105;28;20022;-71
2021/12/15 03:02:04;;;;;;;12.23;8.18;;;8.60;99.90;;;;;;5019571;28;20065;-70
2021/12/15 03:07:15;;;;;;;10.25;7.50;;;8.60;99.90;;;;;;5019193;28;20370;-71
2021/12/15 03:15:34;;;;;;;7.75;6.13;;;8.60;99.90;;;;;;4979885;28;20069;-71
2021/12/15 03:18:13;;;;;;;7.88;6.30;;;8.60;99.90;;;;;;5020324;28;20104;-71
2021/12/15 03:20:46;;;;;;;7.68;6.05;;;8.60;99.90;;;;;;5020529;28;20120;-70
2021/12/15 03:23:14;;;;;;;12.32;6.78;;;8.60;99.90;;;;;;5023364;28;20029;-71
2021/12/15 03:25:40;;;;;;;11.10;7.95;;;8.70;99.90;;;;;;5020989;28;20125;-71
2021/12/15 03:36:35;;;;;;;11.25;8.15;;;8.70;99.90;;;;;;5022835;28;20041;-67
2021/12/15 03:39:01;;;;;;;12.63;8.23;;;8.70;99.90;;;;;;5021852;28;20080;-67
2021/12/15 03:41:26;;;;;;;;;;;8.70;99.90;;;;;;5021664;28;20403;-67
2021/12/15 03:43:52;;;;;;;10.57;7.28;;;8.60;99.90;;;;;;5021570;28;19909;-67
2021/12/15 03:46:17;;;;;;;;;;;8.70;99.90;;;;;;5022386;28;20060;-67
2021/12/15 03:48:44;;;;;;;12.50;8.95;;;8.60;99.90;;;;;;5022218;28;19967;-67
2021/12/15 03:51:13;;;;;;;11.25;7.68;;;8.60;99.90;;;;;;5022260;28;20033;-67
2021/12/15 03:53:39;;;;;;;10.85;8.07;;;8.60;99.90;;;;;;5021957;28;20041;-67
2021/12/15 03:56:07;;;;;;;13.15;8.90;;;8.60;99.90;;;;;;5021685;28;20032;-67
2021/12/15 03:58:33;;;;;;;15.07;9.52;;;8.60;99.90;;;;;;5021036;28;20036;-67
2021/12/15 04:01:04;;;;;;;;;;;8.60;99.90;;;;;;5022005;28;20030;-67
2021/12/15 04:03:37;;;;;;;11.68;8.20;;;8.60;99.90;;;;;;5022279;28;19905;-67
2021/12/15 04:06:05;;;;;;;12.77;8.55;;;8.60;99.90;;;;;;5021831;28;20057;-67
2021/12/15 04:08:34;;;;;;;10.90;8.27;;;8.60;99.90;;;;;;5021665;28;20568;-67
2021/12/15 04:11:01;;;;;;;12.63;9.82;;;8.60;99.90;;;;;;5021977;28;20026;-67
2021/12/15 04:13:26;;;;;;;12.98;9.80;;;8.60;99.90;;;;;;5021166;28;20056;-67
2021/12/15 04:16:05;;;;;;;;;;;8.60;99.90;;;;;;5021168;28;20022;-67
2021/12/15 04:18:30;;;;;;;;;;;8.60;99.90;;;;;;5021436;28;19913;-67
2021/12/15 04:20:56;;;;;;;12.88;9.02;;;8.60;99.90;;;;;;5021489;28;19909;-67
2021/12/15 04:23:22;;;;;;;;;;;8.60;99.90;;;;;;5022800;28;20124;-67
2021/12/15 04:25:51;;;;;;;11.40;8.18;;;8.60;99.90;;;;;;5021073;28;19923;-67
2021/12/15 04:28:24;;;;;;;12.13;8.43;;;8.60;99.90;;;;;;5003768;28;20033;-67
2021/12/15 04:30:55;;;;;;;14.50;9.93;;;8.60;99.90;;;;;;5021817;28;20433;-67
2021/12/15 04:33:32;;;;;;;12.38;8.70;;;8.60;99.90;;;;;;5020867;28;20493;-67
2021/12/15 04:35:58;;;;;;;;;;;8.60;99.90;;;;;;5021416;28;20037;-67
2021/12/15 04:38:26;;;;;;;13.10;9.10;;;8.60;99.90;;;;;;5020496;28;19913;-67
2021/12/15 04:40:53;;;;;;;11.23;8.57;;;8.60;99.90;;;;;;5020637;28;20034;-67
2021/12/15 04:43:18;;;;;;;14.23;9.50;;;8.60;99.90;;;;;;5020944;28;20124;-67
2021/12/15 04:45:44;;;;;;;;;;;8.70;99.90;;;;;;5020582;28;20067;-67
2021/12/15 04:48:10;;;;;;;13.20;9.55;;;8.70;99.90;;;;;;5019501;28;19959;-67
2021/12/15 04:50:36;;;;;;;15.70;9.35;;;8.70;99.90;;;;;;5020376;28;20872;-66
2021/12/15 04:53:03;;;;;;;13.20;9.02;;;8.70;99.90;;;;;;5021192;28;20044;-66
2021/12/15 04:55:31;;;;;;;11.15;7.47;;;8.70;99.90;;;;;;5020035;28;20196;-67
2021/12/15 04:58:02;;;;;;;13.55;9.82;;;8.70;99.90;;;;;;5020992;28;20044;-67
2021/12/15 05:00:31;;;;;;;13.82;9.82;;;8.70;99.90;;;;;;5020441;28;20075;-66
2021/12/15 05:02:58;;;;;;;13.23;9.30;;;8.70;99.90;;;;;;5022896;28;20044;-67
2021/12/15 05:05:25;;;;;;;13.55;9.20;;;8.70;99.90;;;;;;5020361;28;20041;-67
2021/12/15 05:07:51;;;;;;;14.90;8.95;;;8.70;99.90;;;;;;5020762;28;20041;-67
2021/12/15 05:10:17;;;;;;;;;;;8.70;99.90;;;;;;5021026;28;20034;-67
2021/12/15 05:12:43;;;;;;;12.63;8.32;;;8.70;99.90;;;;;;5020825;28;19917;-67
2021/12/15 05:15:09;;;;;;;;;;;8.80;99.90;;;;;;5021473;28;20037;-67
2021/12/15 05:17:35;;;;;;;11.45;7.97;;;8.70;99.90;;;;;;5020403;28;19906;-66
2021/12/15 05:20:03;;;;;;;;;;;8.70;99.90;;;;;;5008395;28;20048;-66
2021/12/15 05:22:30;;;;;;;18.42;10.25;;;8.70;99.90;;;;;;5020564;28;20588;-67
2021/12/15 05:24:57;;;;;;;13.77;9.48;;;8.80;99.90;;;;;;5020752;28;20061;-66
2021/12/15 05:27:22;;;;;;;16.30;10.60;;;8.80;99.90;;;;;;5020520;28;20396;-67
2021/12/15 05:29:48;;;;;;;;;;;8.80;99.90;;;;;;5020116;28;20031;-67
2021/12/15 05:32:18;;;;;;;13.73;9.18;;;8.80;99.90;;;;;;5019290;28;19914;-67
2021/12/15 05:34:46;;;;;;;13.95;9.63;;;8.80;99.90;;;;;;5020269;28;21232;-66
2021/12/15 05:37:11;;;;;;;15.18;10.13;;;8.80;99.90;;;;;;5019184;28;20488;-66
2021/12/15 05:39:39;;;;;;;;;;;8.80;99.90;;;;;;5019532;28;20022;-66
2021/12/15 05:42:05;;;;;;;16.23;8.88;;;8.80;99.90;;;;;;5019669;28;19913;-66
2021/12/15 05:44:30;;;;;;;;;;;8.80;99.90;;;;;;5018679;28;20092;-66
2021/12/15 05:49:26;;;;;;;13.70;9.00;;;8.80;99.90;;;;;;5038425;28;20503;-75
2021/12/15 05:51:51;;;;;;;;;;;8.80;99.90;;;;;;5022131;28;20037;-73
2021/12/15 05:54:17;;;;;;;10.95;7.18;;;8.80;99.90;;;;;;5039606;28;19913;-73
2021/12/15 05:56:43;;;;;;;11.15;7.93;;;8.90;99.90;;;;;;5039587;28;20029;-72
2021/12/15 05:59:09;;;;;;;;;;;8.90;99.90;;;;;;5039562;28;20033;-75
2021/12/15 06:01:34;;;;;;;16.50;8.48;;;8.90;99.90;;;;;;5039549;28;19917;-74
2021/12/15 06:04:00;;;;;;;;;;;8.90;99.90;;;;;;5039741;28;20029;-72
2021/12/15 06:06:27;;;;;;;14.65;7.68;;;8.90;99.90;;;;;;5039316;28;19920;-74
2021/12/15 06:08:53;;;;;;;11.00;7.53;;;8.90;99.90;;;;;;5039077;28;20048;-73
2021/12/15 06:11:19;;;;;;;13.45;7.20;;;8.90;99.90;;;;;;5040590;28;20106;-74
2021/12/15 06:13:50;;;;;;;;;;;8.90;99.90;;;;;;5039545;28;20052;-73
2021/12/15 06:16:18;;;;;;;12.85;6.60;;;8.90;99.90;;;;;;5021385;28;19998;-74
2021/12/15 06:18:44;;;;;;;10.90;7.35;;;8.90;99.90;;;;;;5039754;28;20025;-74
2021/12/15 06:21:10;;;;;;;;;;;8.90;99.90;;;;;;5038746;28;20075;-77
2021/12/15 06:23:36;;;;;;;17.33;8.02;;;8.90;99.90;;;;;;5039248;28;20000;-76
2021/12/15 06:26:05;;;;;;;25.35;9.48;;;8.90;99.90;;;;;;5040233;28;20048;-75
2021/12/15 06:28:33;;;;;;;23.65;7.93;;;8.90;99.90;;;;;;5038419;28;20056;-76
2021/12/15 06:31:00;;;;;;;17.20;8.30;;;9.00;99.90;;;;;;5040747;28;20033;-76
2021/12/15 06:33:28;;;;;;;12.95;8.20;;;8.90;99.90;;;;;;5039322;28;20082;-76
2021/12/15 06:35:58;;;;;;;20.10;8.98;;;8.90;99.90;;;;;;5038483;28;20514;-77
2021/12/15 06:38:28;;;;;;;15.63;9.18;;;9.00;99.90;;;;;;5039272;28;20457;-76
2021/12/15 06:40:53;;;;;;;19.02;9.65;;;9.00;99.90;;;;;;5038601;28;20442;-76
2021/12/15 06:43:19;;;;;;;;;;;8.90;99.90;;;;;;5038073;28;20063;-76
2021/12/15 06:45:58;;;;;;;15.52;8.50;;;9.00;99.90;;;;;;5038932;28;19917;-76
2021/12/15 06:59:20;;;;;;;20.58;7.88;;;8.90;99.90;;;;;;5041734;28;20036;-76
2021/12/15 07:01:48;;;;;;;;;;;8.90;99.90;;;;;;5042676;28;20030;-76
2021/12/15 07:04:13;;;;;;;;;;;8.90;99.90;;;;;;5038890;28;19912;-76
2021/12/15 07:06:39;;;;;;;11.68;7.25;;;8.90;99.90;;;;;;5041489;28;20310;-76
2021/12/15 07:09:05;;;;;;;13.18;7.68;;;8.90;99.90;;;;;;5043178;28;20029;-77
2021/12/15 07:11:31;;;;;;;12.77;8.20;;;8.90;99.90;;;;;;5038110;28;20025;-74
2021/12/15 07:13:56;;;;;;;;;;;8.90;99.90;;;;;;5042877;28;20040;-74
2021/12/15 07:16:23;;;;;;;13.38;8.25;;;8.90;99.90;;;;;;5041595;28;20021;-74
2021/12/15 07:19:03;;;;;;;14.75;8.10;;;8.80;99.90;;;;;;5041600;28;20091;-73
2021/12/15 07:21:34;;;;;;;13.05;8.07;;;8.90;99.90;;;;;;5042249;28;20504;-75
2021/12/15 07:23:59;;;;;;;14.13;8.20;;;8.80;99.90;;;;;;5040320;28;20029;-75
2021/12/15 07:26:25;;;;;;;;;;;8.90;99.90;;;;;;5042638;28;20082;-76
2021/12/15 07:28:50;;;;;;;13.52;8.68;;;8.90;99.90;;;;;;5042140;28;19909;-76
2021/12/15 07:31:16;;;;;;;;;;;8.90;99.90;;;;;;5041771;28;20030;-78
2021/12/15 07:33:42;;;;;;;14.40;9.30;;;8.90;99.90;;;;;;5042162;28;19916;-77
2021/12/15 07:36:07;;;;;;;;;;;8.90;99.90;;;;;;5043660;28;20033;-78
2021/12/15 07:38:36;;;;;;;25.67;14.57;;;8.90;99.90;;;;;;5041014;28;19909;-76
2021/12/15 07:41:03;;;;;;;15.65;11.27;;;8.80;99.90;;;;;;5041378;28;20025;-75
2021/12/15 07:43:29;;;;;;;20.20;12.10;;;8.90;99.90;;;;;;5041559;28;20060;-76
2021/12/15 07:45:59;;;;;;;;;;;8.90;99.90;;;;;;5042123;28;20476;-72
2021/12/15 07:48:28;;;;;;;16.83;11.18;;;8.90;99.90;;;;;;5041998;28;20361;-72
2021/12/15 07:50:57;;;;;;;23.02;12.15;;;8.90;99.90;;;;;;5041568;28;20017;-72
2021/12/15 07:53:22;;;;;;;17.40;11.85;;;8.90;99.90;;;;;;5042049;28;20040;-75
2021/12/15 07:55:48;;;;;;;;;;;8.90;99.90;;;;;;5042067;28;20423;-75
2021/12/15 07:58:18;;;;;;;22.55;13.00;;;8.90;99.90;;;;;;5039847;28;20409;-75
2021/12/15 08:00:43;;;;;;;18.65;13.57;;;9.00;99.90;;;;;;5041659;28;20091;-75
2021/12/15 08:03:09;;;;;;;;;;;9.00;99.90;;;;;;5041392;28;20037;-74
2021/12/15 08:05:36;;;;;;;18.67;12.73;;;9.00;99.90;;;;;;5040295;28;19916;-75
2021/12/15 08:08:02;;;;;;;23.70;14.13;;;9.00;99.90;;;;;;5041162;28;20553;-77
2021/12/15 08:10:27;;;;;;;19.70;14.35;;;9.00;99.90;;;;;;5041279;28;20037;-74
2021/12/15 08:12:53;;;;;;;;;;;9.00;99.90;;;;;;5041570;28;20032;-74
2021/12/15 08:15:19;;;;;;;24.95;13.82;;;9.00;99.90;;;;;;5039683;28;19913;-73
2021/12/15 08:17:48;;;;;;;;;;;9.00;99.90;;;;;;5041469;28;20115;-75
2021/12/15 08:20:15;;;;;;;21.58;14.45;;;9.00;99.90;;;;;;5041680;28;19913;-73
2021/12/15 08:22:41;;;;;;;18.73;13.52;;;9.00;99.90;;;;;;5040291;28;20495;-76
2021/12/15 08:25:08;;;;;;;;;;;9.10;99.90;;;;;;5040986;28;20048;-75
2021/12/15 08:27:34;;;;;;;23.77;13.35;;;9.10;99.90;;;;;;5041379;28;20441;-75
2021/12/15 08:29:59;;;;;;;22.77;13.40;;;9.10;99.90;;;;;;5041448;28;20030;-74
2021/12/15 08:32:25;;;;;;;;;;;9.10;99.90;;;;;;5041995;28;20140;-77
2021/12/15 08:34:50;;;;;;;21.75;13.55;;;9.10;99.90;;;;;;5040690;28;19908;-77
2021/12/15 08:37:16;;;;;;;;;;;9.10;99.90;;;;;;5040985;28;20593;-76
2021/12/15 08:39:42;;;;;;;19.90;12.52;;;9.10;99.90;;;;;;5040330;28;19919;-76
2021/12/15 08:42:09;;;;;;;24.15;15.85;;;9.10;99.90;;;;;;5040439;28;20400;-75
2021/12/15 08:44:35;;;;;;;18.25;13.13;;;9.10;99.90;;;;;;5040286;28;20017;-76
2021/12/15 08:47:00;;;;;;;;;;;9.10;99.90;;;;;;5041627;28;20080;-76
2021/12/15 08:49:26;;;;;;;24.98;15.02;;;9.10;99.90;;;;;;5040295;28;19913;-75
2021/12/15 08:51:51;;;;;;;;;;;9.10;99.90;;;;;;5041579;28;20033;-74
2021/12/15 08:54:20;;;;;;;19.70;12.05;;;9.20;99.90;;;;;;5040876;28;19909;-75
2021/12/15 08:56:46;;;;;;;17.27;12.48;;;9.20;99.90;;;;;;5039910;28;20087;-74
2021/12/15 08:59:13;;;;;;;18.77;12.35;;;9.20;99.90;;;;;;5039550;28;20492;-75
2021/12/15 09:01:40;;;;;;;20.52;14.15;;;9.20;99.90;;;;;;5040457;28;20045;-76
2021/12/15 09:04:06;;;;;;;21.15;13.00;;;9.30;99.90;;;;;;5042930;28;20028;-76
2021/12/15 09:06:32;;;;;;;;;;;9.30;99.90;;;;;;5041021;28;20124;-77
2021/12/15 09:08:57;;;;;;;22.42;11.57;;;9.30;99.90;;;;;;5041168;28;19916;-75
2021/12/15 09:11:24;;;;;;;;;;;9.30;99.90;;;;;;5040935;28;20040;-76
2021/12/15 09:13:52;;;;;;;18.83;11.60;;;9.30;99.90;;;;;;5042876;28;20772;-76
2021/12/15 09:16:18;;;;;;;16.75;11.70;;;9.30;99.90;;;;;;5042545;28;20021;-75
2021/12/15 09:18:46;;;;;;;20.45;12.18;;;9.30;99.90;;;;;;5040886;28;20025;-76
2021/12/15 09:21:14;;;;;;;24.92;15.00;;;9.30;99.90;;;;;;5042686;28;20044;-77
2021/12/15 09:23:41;;;;;;;22.13;14.38;;;9.30;99.90;;;;;;5040311;28;20085;-76
2021/12/15 09:26:07;;;;;;;20.60;13.35;;;9.30;99.90;;;;;;5039683;28;20028;-75
2021/12/15 09:28:34;;;;;;;20.80;12.02;;;9.30;99.90;;;;;;5038240;28;20170;-76
2021/12/15 09:31:01;;;;;;;22.42;13.32;;;9.30;99.90;;;;;;5041058;28;20034;-75
2021/12/15 09:33:29;;;;;;;;;;;9.30;99.90;;;;;;5041874;28;20029;-75
2021/12/15 09:35:55;;;;;;;19.15;11.82;;;9.30;99.90;;;;;;5040943;28;20360;-75
2021/12/15 09:38:22;;;;;;;17.98;11.45;;;9.40;99.90;;;;;;5041464;28;20052;-75
2021/12/15 09:40:51;;;;;;;15.82;11.07;;;9.40;99.90;;;;;;5040033;28;20123;-75
2021/12/15 09:43:17;;;;;;;15.50;9.82;;;9.40;99.90;;;;;;5041224;28;20048;-76
2021/12/15 09:46:00;;;;;;;;;;;9.40;99.90;;;;;;5041102;28;20491;-75
2021/12/15 10:05:14;;;;;;;13.98;10.07;;;9.50;99.90;;;;;;5038496;28;20121;-75
2021/12/15 10:10:45;;;;;;;14.23;9.70;;;9.50;99.90;;;;;;5040931;28;20779;-77
2021/12/15 10:19:19;;;;;;;11.48;8.13;;;9.50;99.90;;;;;;5038495;28;20756;-75
2021/12/15 10:21:57;;;;;;;13.85;8.02;;;9.50;99.90;;;;;;5021993;28;20040;-74
2021/12/15 10:24:31;;;;;;;10.82;7.60;;;9.50;99.90;;;;;;5038616;28;20036;-73
2021/12/15 10:27:00;;;;;;;15.32;9.07;;;9.60;99.90;;;;;;5039609;28;20037;-77
2021/12/15 10:29:26;;;;;;;16.25;8.63;;;9.60;99.90;;;;;;5022099;28;20031;-75
2021/12/15 10:32:03;;;;;;;;;;;9.60;99.90;;;;;;5043337;28;20017;-75
2021/12/15 10:34:30;;;;;;;15.52;7.88;;;9.60;99.90;;;;;;5044413;28;20016;-75
2021/12/15 10:36:56;;;;;;;8.95;6.85;;;9.60;99.90;;;;;;5043695;28;20025;-75
2021/12/15 10:39:22;;;;;;;11.95;7.50;;;9.60;99.90;;;;;;5043288;28;20048;-75
2021/12/15 10:41:52;;;;;;;15.23;8.02;;;9.60;99.90;;;;;;5043637;28;20037;-72
2021/12/15 10:44:23;;;;;;;11.23;7.05;;;9.60;99.90;;;;;;5042167;28;20021;-76
2021/12/15 10:46:57;;;;;;;11.63;7.20;;;9.60;99.90;;;;;;5043105;28;20022;-75
2021/12/15 10:49:26;;;;;;;12.68;7.78;;;9.70;99.90;;;;;;5042630;28;20028;-75
2021/12/15 10:51:56;;;;;;;11.63;7.32;;;9.70;99.90;;;;;;5041369;28;20051;-75
2021/12/15 10:54:25;;;;;;;9.88;6.45;;;9.70;99.90;;;;;;5037567;28;20120;-68
2021/12/15 10:57:03;;;;;;;9.45;6.43;;;9.70;99.90;;;;;;5039953;28;20104;-74
2021/12/15 10:59:33;;;;;;;12.95;7.50;;;10.20;99.90;;;;;;5044586;28;20511;-73
2021/12/15 11:02:03;;;;;;;14.90;8.13;;;10.50;99.90;;;;;;5024848;28;20040;-77
2021/12/15 11:04:35;;;;;;;16.25;8.18;;;10.30;99.90;;;;;;5041568;28;20455;-76
2021/12/15 11:07:09;;;;;;;14.75;7.97;;;10.10;99.90;;;;;;5041756;28;20036;-76
2021/12/15 11:09:42;;;;;;;15.13;9.10;;;10.00;99.90;;;;;;5042639;28;20051;-73
2021/12/15 11:12:25;;;;;;;12.00;7.75;;;9.90;99.90;;;;;;5042858;28;20025;-72
2021/12/15 11:14:57;;;;;;;11.45;7.45;;;9.80;99.90;;;;;;5025571;28;20416;-72
2021/12/15 11:17:29;;;;;;;12.02;7.57;;;9.80;99.90;;;;;;5041713;28;20025;-72
2021/12/15 11:19:58;;;;;;;12.20;7.18;;;9.80;99.90;;;;;;5042031;28;20024;-72
2021/12/15 11:22:32;;;;;;;10.35;7.57;;;9.80;99.90;;;;;;5041648;28;20104;-72
2021/12/15 11:24:58;;;;;;;13.18;8.73;;;9.80;99.90;;;;;;5042667;28;20056;-73
2021/12/15 11:27:24;;;;;;;14.32;7.97;;;9.80;99.90;;;;;;5042260;28;20049;-75
2021/12/15 11:29:49;;;;;;;;;;;9.80;99.90;;;;;;5042212;28;20060;-75
2021/12/15 11:32:37;;;;;;;9.30;6.45;;;9.80;99.90;;;;;;5041394;28;19952;-75
2021/12/15 11:35:17;;;;;;;14.65;7.45;;;9.80;99.90;;;;;;5023582;28;20406;-76
2021/12/15 11:37:58;;;;;;;10.60;7.20;;;9.80;99.90;;;;;;5031162;28;20041;-75
2021/12/15 11:40:30;;;;;;;10.48;6.60;;;9.80;99.90;;;;;;5040109;28;20494;-75
2021/12/15 11:42:56;;;;;;;14.10;6.70;;;9.80;99.90;;;;;;5043113;28;20021;-75
2021/12/15 11:45:22;;;;;;;;;;;9.80;99.90;;;;;;5041935;28;20037;-75
2021/12/15 11:47:47;;;;;;;13.75;7.10;;;9.80;99.90;;;;;;5059459;22;19903;-63
2021/12/15 11:50:15;;;;;;;;;;;9.90;99.90;;;;;;5056198;28;20106;-61
2021/12/15 11:52:50;;;;;;;12.43;7.03;;;9.80;99.90;;;;;;5045107;28;19919;-59
2021/12/15 11:55:24;;;;;;;13.32;8.10;;;9.90;99.90;;;;;;5046941;28;20048;-61
2021/12/15 11:57:51;;;;;;;11.88;6.53;;;9.80;99.90;;;;;;5047264;28;20017;-63
2021/12/15 12:00:20;;;;;;;12.07;6.95;;;9.90;99.90;;;;;;5045656;28;20021;-61
2021/12/15 12:02:48;;;;;;;13.55;8.05;;;10.40;99.90;;;;;;5046557;28;20296;-61
2021/12/15 12:05:24;;;;;;;11.65;6.95;;;10.60;99.90;;;;;;5044824;28;20392;-60
2021/12/15 12:07:59;;;;;;;15.93;7.95;;;10.40;99.90;;;;;;5046802;28;20100;-61
2021/12/15 12:10:34;;;;;;;8.65;6.80;;;10.30;99.90;;;;;;5045914;28;20056;-62
2021/12/15 12:13:12;;;;;;;11.97;8.43;;;10.20;99.90;;;;;;5045914;28;20373;-61
2021/12/15 12:15:42;;;;;;;14.00;6.82;;;10.10;99.90;;;;;;5045855;28;20375;-61
2021/12/15 12:18:13;;;;;;;9.90;6.90;;;10.00;99.90;;;;;;5047463;28;20036;-62
2021/12/15 12:20:46;;;;;;;11.98;7.25;;;10.00;99.90;;;;;;5044643;28;20021;-62
2021/12/15 12:23:15;;;;;;;14.43;8.07;;;10.00;99.90;;;;;;5044182;28;20032;-63
2021/12/15 12:25:48;;;;;;;12.50;7.85;;;10.00;99.90;;;;;;5046793;28;20156;-61
2021/12/15 12:28:18;;;;;;;13.70;6.35;;;10.00;99.90;;;;;;5046987;28;20033;-61
2021/12/15 12:30:49;;;;;;;13.60;6.70;;;10.00;99.90;;;;;;5043555;28;20263;-61
2021/12/15 12:33:16;;;;;;;10.70;7.63;;;10.00;99.90;;;;;;5044210;28;20029;-61
2021/12/15 12:35:46;;;;;;;10.30;5.95;;;10.00;99.90;;;;;;5046294;28;20029;-62
2021/12/15 12:38:18;;;;;;;8.35;6.32;;;10.00;99.90;;;;;;5045723;28;20035;-62
2021/12/15 12:40:54;;;;;;;9.98;6.15;;;9.90;99.90;;;;;;5044252;28;20040;-62
2021/12/15 12:43:27;;;;;;;9.65;6.13;;;9.90;99.90;;;;;;5046505;28;20471;-62
2021/12/15 12:46:21;;;;;;;13.27;6.68;;;9.90;99.90;;;;;;5046032;28;20020;-63
2021/12/15 13:00:44;;;;;;;6.57;5.03;;;10.00;99.90;;;;;;5044430;28;20036;-62
2021/12/15 13:03:14;;;;;;;9.10;5.50;;;10.00;99.90;;;;;;5045192;28;20053;-63
2021/12/15 13:05:51;;;;;;;12.98;6.22;;;10.00;99.90;;;;;;5043217;28;20133;-62
2021/12/15 13:08:28;;;;;;;7.28;5.88;;;10.00;99.90;;;;;;5045591;28;20370;-62
2021/12/15 13:10:54;;;;;;;9.50;6.18;;;10.00;99.90;;;;;;5025503;28;20493;-61
2021/12/15 13:13:21;;;;;;;;;;;10.00;99.90;;;;;;5043646;28;20021;-62
2021/12/15 13:16:07;;;;;;;10.48;5.30;;;10.00;99.90;;;;;;5044364;28;19916;-61
2021/12/15 13:18:55;;;;;;;8.52;4.68;;;10.00;99.90;;;;;;5046392;28;20083;-61
2021/12/15 13:21:38;;;;;;;9.20;4.88;;;10.00;99.90;;;;;;5042246;28;20029;-61
2021/12/15 13:24:09;;;;;;;11.27;5.22;;;10.00;99.90;;;;;;5043930;28;20021;-61
2021/12/15 13:29:49;;;;;;;5.68;4.55;;;10.10;99.90;;;;;;5042318;28;20436;-62
2021/12/15 13:32:14;;;;;;;12.35;6.25;;;10.00;99.90;;;;;;5045797;28;20037;-61
2021/12/15 13:34:42;;;;;;;;;;;10.10;99.90;;;;;;5044710;28;20035;-62
2021/12/15 13:37:08;;;;;;;6.40;4.22;;;10.00;99.90;;;;;;5041300;28;19940;-61
2021/12/15 13:39:44;;;;;;;7.70;4.45;;;10.00;99.90;;;;;;5043215;28;20029;-62
2021/12/15 13:42:14;;;;;;;9.07;4.68;;;10.00;99.90;;;;;;5044449;28;20036;-62
2021/12/15 13:44:49;;;;;;;7.47;5.53;;;10.00;99.90;;;;;;5045235;28;20029;-61
2021/12/15 13:47:19;;;;;;;8.02;4.97;;;10.00;99.90;;;;;;5046768;28;20099;-61
2021/12/15 13:50:00;;;;;;;6.60;4.68;;;10.00;99.90;;;;;;5043644;28;20478;-61
2021/12/15 13:52:30;;;;;;;7.22;5.03;;;10.00;99.90;;;;;;5045179;28;20454;-61
2021/12/15 13:55:04;;;;;;;6.53;5.57;;;10.00;99.90;;;;;;5044548;28;20419;-61
2021/12/15 13:57:37;;;;;;;5.47;4.30;;;10.00;99.90;;;;;;5046545;28;20021;-62
2021/12/15 14:00:15;;;;;;;6.05;3.85;;;10.00;99.90;;;;;;5025651;28;20052;-61
2021/12/15 14:03:00;;;;;;;8.52;3.80;;;10.00;99.90;;;;;;5026533;28;20032;-61
2021/12/15 14:05:52;;;;;;;7.90;4.72;;;10.10;99.90;;;;;;5024576;28;20033;-61
2021/12/15 14:08:26;;;;;;;7.30;4.28;;;10.00;99.90;;;;;;5046149;28;20524;-61
2021/12/15 14:10:54;;;;;;;54.70;10.05;;;10.00;99.90;;;;;;5040245;28;20029;-61
2021/12/15 14:13:22;;;;;;;66.15;11.60;;;10.00;99.90;;;;;;5041797;28;20264;-61
2021/12/15 14:15:50;;;;;;;17.52;6.68;;;10.00;99.90;;;;;;5043610;28;20477;-62
2021/12/15 14:18:27;;;;;;;13.63;6.38;;;10.00;99.90;;;;;;5043640;28;20051;-62
2021/12/15 14:20:55;;;;;;;11.23;5.00;;;10.00;99.90;;;;;;5043911;28;20082;-63
2021/12/15 14:23:25;;;;;;;13.32;5.53;;;10.00;99.90;;;;;;5043861;28;20029;-63
2021/12/15 14:25:52;;;;;;;25.20;6.40;;;10.00;99.90;;;;;;5045546;28;20037;-63
2021/12/15 14:28:40;;;;;;;9.02;5.25;;;10.00;99.90;;;;;;5040726;28;20111;-62
2021/12/15 14:31:30;;;;;;;9.65;5.05;;;10.00;99.90;;;;;;5043149;28;20033;-62
2021/12/15 14:34:00;;;;;;;15.40;6.55;;;9.90;99.90;;;;;;5042703;28;20033;-62
2021/12/15 14:36:33;;;;;;;9.93;5.57;;;9.90;99.90;;;;;;5044143;28;20389;-62
2021/12/15 14:39:03;;;;;;;7.57;5.85;;;9.90;99.90;;;;;;5039468;28;20396;-63
2021/12/15 14:41:32;;;;;;;14.82;6.13;;;9.90;99.90;;;;;;5043683;28;20486;-62